Time;durP1;ratioP1;P1;durP2;ratioP2;P2;SDS_P1;SDS_P2;PMS_P1;PMS_P2;Temp;Humidity;BMP_temperature;BMP_pressure;BME280_temperature;BME280_humidity;BME280_pressure;Samples;Min_cycle;Max_cycle;Signal;HPM_P1;HPM_P2
2023/12/11 00:01:53;;;;;;;0.70;0.50;;;;;;;8.74;100.00;97201.72;5076014;28;20233;-79
2023/12/11 00:04:20;;;;;;;1.47;0.50;;;;;;;8.70;100.00;97199.44;5075091;28;20302;-79
2023/12/11 00:06:46;;;;;;;1.53;0.60;;;;;;;8.64;100.00;97202.53;5074261;28;20212;-79
2023/12/11 00:09:14;;;;;;;0.40;0.40;;;;;;;8.63;100.00;97192.97;5073465;28;20300;-79
2023/12/11 00:11:41;;;;;;;0.83;0.50;;;;;;;8.68;100.00;97193.44;5073371;28;20231;-79
2023/12/11 00:14:07;;;;;;;0.53;0.50;;;;;;;8.72;100.00;97197.53;5073570;28;20245;-79
2023/12/11 00:16:34;;;;;;;1.30;0.53;;;;;;;8.73;100.00;97186.88;5072763;28;20213;-79
2023/12/11 00:19:01;;;;;;;0.47;0.47;;;;;;;8.70;100.00;97191.53;5073628;28;20237;-79
2023/12/11 00:21:27;;;;;;;1.27;0.43;;;;;;;8.66;100.00;97180.41;5072901;28;20219;-79
2023/12/11 00:23:54;;;;;;;1.33;0.43;;;;;;;8.61;100.00;97184.31;5073014;28;20214;-79
2023/12/11 00:26:22;;;;;;;0.70;0.40;;;;;;;8.48;100.00;97188.84;5072941;28;20296;-79
2023/12/11 00:28:49;;;;;;;0.70;0.50;;;;;;;8.36;100.00;97201.16;5072952;28;20217;-79
2023/12/11 00:31:15;;;;;;;0.60;0.50;;;;;;;8.35;100.00;97206.53;5073421;28;20228;-80
2023/12/11 00:33:42;;;;;;;1.03;0.50;;;;;;;8.37;100.00;97207.25;5078278;28;20235;-80
2023/12/11 00:36:09;;;;;;;0.47;0.47;;;;;;;8.44;100.00;97197.97;5078194;28;20242;-79
2023/12/11 00:38:35;;;;;;;0.40;0.40;;;;;;;8.60;100.00;97209.00;5079269;28;20249;-80
2023/12/11 00:41:02;;;;;;;1.23;0.50;;;;;;;8.70;100.00;97209.97;5077445;28;20316;-79
2023/12/11 00:43:30;;;;;;;1.87;0.50;;;;;;;8.72;100.00;97202.78;5075139;28;20292;-79
2023/12/11 00:45:56;;;;;;;1.43;0.53;;;;;;;8.76;100.00;97215.59;5074711;28;20209;-79
2023/12/11 00:48:23;;;;;;;1.47;0.70;;;;;;;8.80;100.00;97206.50;5075383;28;20303;-79
2023/12/11 00:50:49;;;;;;;0.47;0.40;;;;;;;8.82;100.00;97219.59;5073471;28;20228;-79
2023/12/11 00:53:16;;;;;;;1.13;0.40;;;;;;;8.87;100.00;97222.72;5072248;28;20221;-80
2023/12/11 00:55:43;;;;;;;0.70;0.50;;;;;;;8.88;100.00;97240.19;5073254;28;20207;-80
2023/12/11 00:58:09;;;;;;;1.20;0.40;;;;;;;8.89;100.00;97232.19;5077547;28;20713;-80
2023/12/11 01:00:37;;;;;;;0.67;0.60;;;;;;;8.90;100.00;97233.00;5079032;28;20219;-80
2023/12/11 01:03:04;;;;;;;0.73;0.40;;;;;;;8.95;100.00;97236.13;5078614;28;20722;-80
2023/12/11 01:05:31;;;;;;;0.43;0.43;;;;;;;8.96;100.00;97243.06;5078106;28;20270;-80
2023/12/11 01:07:57;;;;;;;0.50;0.50;;;;;;;8.97;100.00;97239.47;5078957;28;20290;-80
2023/12/11 01:10:24;;;;;;;0.87;0.50;;;;;;;9.01;100.00;97225.09;5079069;28;20289;-80
2023/12/11 01:12:50;;;;;;;0.60;0.40;;;;;;;8.95;100.00;97225.59;5079512;28;20259;-80
2023/12/11 01:15:17;;;;;;;2.80;0.67;;;;;;;8.91;100.00;97226.75;5080202;28;20676;-79
2023/12/11 01:17:45;;;;;;;1.87;0.60;;;;;;;8.84;100.00;97223.78;5080769;28;20294;-80
2023/12/11 01:20:12;;;;;;;0.50;0.47;;;;;;;8.78;100.00;97229.50;5077373;28;20271;-80
2023/12/11 01:22:38;;;;;;;0.50;0.50;;;;;;;8.85;100.00;97232.50;5076345;28;20291;-79
2023/12/11 01:25:06;;;;;;;0.60;0.60;;;;;;;8.79;100.00;97236.47;5076090;28;20299;-80
2023/12/11 01:27:33;;;;;;;0.70;0.50;;;;;;;8.79;100.00;97220.66;5077072;28;20212;-80
2023/12/11 01:30:00;;;;;;;0.40;0.40;;;;;;;8.76;100.00;97212.97;5076085;28;20262;-79
2023/12/11 01:32:26;;;;;;;0.90;0.53;;;;;;;8.74;100.00;97212.25;5076247;28;20237;-79
2023/12/11 01:34:54;;;;;;;0.50;0.50;;;;;;;8.78;100.00;97218.13;5075335;28;20265;-79
2023/12/11 01:37:21;;;;;;;1.27;0.60;;;;;;;8.77;100.00;97221.72;5076365;28;20205;-79
2023/12/11 01:39:47;;;;;;;0.50;0.50;;;;;;;8.75;100.00;97226.28;5076008;28;20300;-79
2023/12/11 01:42:14;;;;;;;1.10;0.60;;;;;;;8.73;100.00;97233.44;5075277;28;20809;-79
2023/12/11 01:44:41;;;;;;;1.03;0.50;;;;;;;8.70;100.00;97236.31;5075255;28;20856;-79
2023/12/11 01:47:07;;;;;;;0.90;0.50;;;;;;;8.70;100.00;97241.59;5076185;28;20310;-80
2023/12/11 01:49:35;;;;;;;0.50;0.47;;;;;;;8.71;100.00;97245.91;5076224;28;20312;-79
2023/12/11 01:52:04;;;;;;;1.17;0.40;;;;;;;8.68;100.00;97254.88;5076095;28;20231;-79
2023/12/11 01:54:31;;;;;;;0.50;0.40;;;;;;;8.67;100.00;97253.19;5075415;28;20282;-80
2023/12/11 01:56:58;;;;;;;1.60;0.50;;;;;;;8.68;100.00;97244.31;5076260;28;20220;-80
2023/12/11 01:59:25;;;;;;;1.53;0.50;;;;;;;8.71;100.00;97243.25;5075770;28;20271;-80
2023/12/11 02:01:52;;;;;;;1.10;0.40;;;;;;;8.69;100.00;97239.91;5076418;28;20318;-80
2023/12/11 02:04:19;;;;;;;1.87;0.50;;;;;;;8.62;100.00;97234.25;5076213;28;20670;-79
2023/12/11 02:06:45;;;;;;;0.67;0.50;;;;;;;8.60;100.00;97235.31;5076487;28;20758;-79
2023/12/11 02:09:13;;;;;;;1.83;0.40;;;;;;;8.56;100.00;97244.44;5076375;28;20296;-79
2023/12/11 02:11:40;;;;;;;0.40;0.40;;;;;;;8.58;100.00;97237.25;5076144;28;20324;-79
2023/12/11 02:14:06;;;;;;;0.60;0.60;;;;;;;8.59;100.00;97229.25;5076381;28;20220;-80
2023/12/11 02:16:33;;;;;;;1.33;0.77;;;;;;;8.61;100.00;97213.28;5075452;28;20209;-80
2023/12/11 02:18:59;;;;;;;0.40;0.40;;;;;;;8.60;100.00;97215.09;5075980;28;20305;-79
2023/12/11 02:21:26;;;;;;;0.87;0.40;;;;;;;8.56;100.00;97233.91;5077639;28;20312;-79
2023/12/11 02:23:59;;;;;;;1.17;0.60;;;;;;;8.40;100.00;97234.19;5081456;28;20281;-80
2023/12/11 02:26:27;;;;;;;0.47;0.40;;;;;;;8.36;100.00;97231.91;5078008;28;20264;-79
2023/12/11 02:28:54;;;;;;;0.97;0.50;;;;;;;8.39;100.00;97224.59;5076912;28;20211;-79
2023/12/11 02:31:20;;;;;;;0.50;0.47;;;;;;;8.44;100.00;97230.38;5076949;28;20244;-80
2023/12/11 02:33:47;;;;;;;1.13;0.60;;;;;;;8.44;100.00;97237.44;5077279;28;20213;-79
2023/12/11 02:36:14;;;;;;;0.67;0.50;;;;;;;8.49;100.00;97233.50;5076630;28;20293;-79
2023/12/11 02:38:40;;;;;;;0.80;0.60;;;;;;;8.56;100.00;97236.53;5076596;28;20247;-79
2023/12/11 02:41:07;;;;;;;0.87;0.60;;;;;;;8.62;100.00;97222.91;5076534;28;20292;-80
2023/12/11 02:43:35;;;;;;;0.53;0.50;;;;;;;8.61;100.00;97221.19;5076715;28;20300;-80
2023/12/11 02:46:03;;;;;;;0.63;0.63;;;;;;;8.60;100.00;97223.00;5077655;28;20237;-80
2023/12/11 02:48:30;;;;;;;0.70;0.50;;;;;;;8.57;100.00;97225.03;5078377;28;20231;-79
2023/12/11 02:50:56;;;;;;;0.47;0.40;;;;;;;8.57;100.00;97230.31;5077865;28;20308;-79
2023/12/11 02:53:23;;;;;;;0.50;0.50;;;;;;;8.57;100.00;97230.31;5077610;28;20268;-79
2023/12/11 02:55:49;;;;;;;0.97;0.50;;;;;;;8.61;100.00;97231.72;5077383;28;20295;-80
2023/12/11 02:58:16;;;;;;;1.57;0.53;;;;;;;8.62;100.00;97236.88;5078113;28;20280;-80
2023/12/11 03:00:44;;;;;;;0.43;0.43;;;;;;;8.68;100.00;97232.94;5081094;28;20214;-80
2023/12/11 03:03:10;;;;;;;1.33;0.77;;;;;;;8.67;100.00;97226.00;5080234;28;20283;-80
2023/12/11 03:05:37;;;;;;;0.53;0.40;;;;;;;8.67;100.00;97226.00;5079350;28;20545;-80
2023/12/11 03:08:05;;;;;;;0.40;0.40;;;;;;;8.70;100.00;97225.78;5078847;28;20638;-80
2023/12/11 03:10:31;;;;;;;0.40;0.40;;;;;;;8.70;100.00;97236.31;5078244;28;20297;-80
2023/12/11 03:12:58;;;;;;;0.40;0.40;;;;;;;8.74;100.00;97227.22;5076365;28;20245;-80
2023/12/11 03:15:25;;;;;;;0.50;0.50;;;;;;;8.72;100.00;97223.84;5076583;28;20302;-80
2023/12/11 03:17:53;;;;;;;2.10;1.27;;;;;;;8.73;100.00;97221.13;5076837;28;20286;-80
2023/12/11 03:20:20;;;;;;;0.67;0.60;;;;;;;8.71;100.00;97227.47;5076566;28;20213;-80
2023/12/11 03:22:46;;;;;;;1.40;0.50;;;;;;;8.70;100.00;97236.31;5078275;28;20277;-80
2023/12/11 03:25:13;;;;;;;0.80;0.50;;;;;;;8.65;100.00;97220.88;5078741;28;20203;-80
2023/12/11 03:27:39;;;;;;;2.13;0.60;;;;;;;8.64;100.00;97228.88;5079001;28;20223;-80
2023/12/11 03:30:07;;;;;;;0.70;0.40;;;;;;;8.60;100.00;97204.56;5078253;28;20282;-81
2023/12/11 03:32:34;;;;;;;0.47;0.40;;;;;;;8.60;100.00;97214.25;5078686;28;20292;-80
2023/12/11 03:35:03;;;;;;;1.37;0.40;;;;;;;8.62;100.00;97209.72;5078174;28;20207;-80
2023/12/11 03:37:29;;;;;;;0.20;0.20;;;;;;;8.61;100.00;97213.28;5077581;28;20209;-80
2023/12/11 03:39:56;;;;;;;0.50;0.30;;;;;;;8.63;100.00;97214.84;5077270;28;20296;-80
2023/12/11 03:42:22;;;;;;;0.30;0.30;;;;;;;8.58;100.00;97211.72;5077420;28;20321;-80
2023/12/11 03:44:49;;;;;;;0.47;0.47;;;;;;;8.59;100.00;97223.13;5076643;28;20676;-80
2023/12/11 03:47:16;;;;;;;0.40;0.40;;;;;;;8.62;100.00;97220.28;5077812;28;20215;-80
2023/12/11 03:49:42;;;;;;;0.47;0.43;;;;;;;8.59;100.00;97196.78;5076657;28;20315;-80
2023/12/11 03:52:10;;;;;;;0.50;0.30;;;;;;;8.55;100.00;97192.69;5075822;28;20332;-80
2023/12/11 03:54:37;;;;;;;0.30;0.30;;;;;;;8.51;100.00;97186.81;5073041;28;20674;-80
2023/12/11 03:57:04;;;;;;;0.67;0.40;;;;;;;8.49;100.00;97185.25;5073208;28;20300;-80
2023/12/11 03:59:32;;;;;;;0.30;0.30;;;;;;;8.43;100.00;97180.44;5073653;28;20213;-80
2023/12/11 04:01:58;;;;;;;0.23;0.23;;;;;;;8.44;100.00;97179.53;5073830;28;20229;-80
2023/12/11 04:04:25;;;;;;;0.73;0.50;;;;;;;8.46;100.00;97174.97;5072800;28;20542;-80
2023/12/11 04:06:52;;;;;;;0.30;0.30;;;;;;;8.41;100.00;97164.78;5073099;28;20213;-80
2023/12/11 04:09:19;;;;;;;0.40;0.40;;;;;;;8.45;100.00;97157.50;5073414;28;20292;-80
2023/12/11 04:11:46;;;;;;;0.47;0.40;;;;;;;8.46;100.00;97148.63;5073437;28;20228;-80
2023/12/11 04:14:13;;;;;;;0.97;0.40;;;;;;;8.34;100.00;97134.59;5072286;28;20303;-80
2023/12/11 04:16:41;;;;;;;0.37;0.37;;;;;;;8.19;100.00;97135.78;5073557;28;20543;-80
2023/12/11 04:19:08;;;;;;;0.30;0.30;;;;;;;8.04;100.00;97141.31;5073322;28;20324;-79
2023/12/11 04:21:34;;;;;;;0.30;0.30;;;;;;;7.88;100.00;97139.00;5073618;28;20229;-80
2023/12/11 04:24:01;;;;;;;0.30;0.30;;;;;;;7.77;100.00;97149.44;5073517;28;20300;-80
2023/12/11 04:26:29;;;;;;;0.97;0.47;;;;;;;7.68;100.00;97149.28;5072806;28;20220;-80
2023/12/11 04:28:55;;;;;;;0.50;0.50;;;;;;;7.62;100.00;97160.25;5073098;28;20208;-80
2023/12/11 04:31:23;;;;;;;1.13;0.70;;;;;;;7.63;100.00;97161.94;5074143;28;20421;-80
2023/12/11 04:33:50;;;;;;;1.47;0.60;;;;;;;7.63;100.00;97161.94;5077203;28;20591;-80
2023/12/11 04:36:16;;;;;;;0.97;0.60;;;;;;;7.62;100.00;97155.00;5077331;28;20211;-80
2023/12/11 04:38:43;;;;;;;1.30;0.47;;;;;;;7.62;100.00;97174.25;5078006;28;20302;-80
2023/12/11 04:41:09;;;;;;;3.13;0.77;;;;;;;7.63;100.00;97161.94;5078236;28;20253;-80
2023/12/11 04:43:37;;;;;;;1.90;0.80;;;;;;;7.56;100.00;97156.28;5077845;28;20294;-80
2023/12/11 04:46:04;;;;;;;0.40;0.40;;;;;;;7.51;100.00;97163.66;5077979;28;20212;-79
2023/12/11 04:48:31;;;;;;;0.40;0.40;;;;;;;7.47;100.00;97172.72;5078299;28;20370;-80
2023/12/11 04:50:57;;;;;;;0.80;0.70;;;;;;;7.43;100.00;97167.78;5078302;28;20299;-80
2023/12/11 04:53:24;;;;;;;0.30;0.30;;;;;;;7.38;100.00;97168.13;5078012;28;20238;-80
2023/12/11 04:55:50;;;;;;;0.77;0.50;;;;;;;7.38;100.00;97156.78;5077454;28;20309;-80
2023/12/11 04:58:17;;;;;;;1.17;0.50;;;;;;;7.34;100.00;97160.59;5077510;28;20218;-80
2023/12/11 05:00:45;;;;;;;0.40;0.40;;;;;;;7.30;100.00;97148.59;5077868;28;20295;-80
2023/12/11 05:03:11;;;;;;;1.07;0.73;;;;;;;7.24;100.00;97143.78;5078055;28;20215;-80
2023/12/11 05:05:38;;;;;;;1.27;0.80;;;;;;;7.20;100.00;97149.38;5076666;28;20213;-80
2023/12/11 05:08:05;;;;;;;0.30;0.30;;;;;;;7.13;100.00;97156.84;5077866;28;20242;-80
2023/12/11 05:10:32;;;;;;;0.50;0.33;;;;;;;7.02;100.00;97148.88;5077302;28;20243;-80
2023/12/11 05:12:59;;;;;;;0.77;0.50;;;;;;;7.04;100.00;97141.75;5076424;28;20383;-80
2023/12/11 05:15:25;;;;;;;1.07;0.33;;;;;;;6.98;100.00;97136.94;5076009;28;20312;-80
2023/12/11 05:17:53;;;;;;;0.60;0.50;;;;;;;6.96;100.00;97138.78;5076928;28;20642;-80
2023/12/11 05:20:20;;;;;;;0.70;0.60;;;;;;;6.88;100.00;97141.13;5076276;28;20207;-80
2023/12/11 05:22:46;;;;;;;0.50;0.50;;;;;;;6.92;100.00;97152.25;5077404;28;20231;-80
2023/12/11 05:25:13;;;;;;;0.70;0.70;;;;;;;6.94;100.00;97153.84;5076434;28;20236;-80
2023/12/11 05:27:40;;;;;;;1.33;0.70;;;;;;;7.10;100.00;97136.06;5076836;28;20264;-80
2023/12/11 05:30:07;;;;;;;0.77;0.77;;;;;;;7.08;100.00;97127.44;5076778;28;20297;-80
2023/12/11 05:32:34;;;;;;;0.60;0.60;;;;;;;7.09;100.00;97128.28;5075667;28;20322;-80
2023/12/11 05:35:03;;;;;;;1.47;0.80;;;;;;;7.08;100.00;97110.84;5075954;28;20295;-80
2023/12/11 05:37:30;;;;;;;0.90;0.70;;;;;;;7.05;100.00;97106.63;5076063;28;20272;-80
2023/12/11 05:39:56;;;;;;;1.87;0.70;;;;;;;7.04;100.00;97110.22;5075896;28;20221;-80
2023/12/11 05:42:23;;;;;;;0.57;0.57;;;;;;;7.06;100.00;97105.69;5076169;28;20225;-80
2023/12/11 05:44:50;;;;;;;0.60;0.60;;;;;;;7.10;100.00;97096.66;5075277;28;20217;-80
2023/12/11 05:47:16;;;;;;;1.30;0.63;;;;;;;7.10;100.00;97087.91;5076057;28;20243;-80
2023/12/11 05:49:43;;;;;;;1.17;0.80;;;;;;;7.13;100.00;97075.41;5075386;28;20218;-80
2023/12/11 05:52:11;;;;;;;0.60;0.60;;;;;;;7.14;100.00;97086.75;5076094;28;20231;-80
2023/12/11 05:54:37;;;;;;;1.37;0.60;;;;;;;7.09;100.00;97081.81;5075526;28;20306;-80
2023/12/11 05:57:04;;;;;;;0.87;0.60;;;;;;;6.99;100.00;97117.59;5076726;28;20294;-80
2023/12/11 05:59:31;;;;;;;0.60;0.60;;;;;;;6.93;100.00;97125.91;5076356;28;20421;-80
2023/12/11 06:01:57;;;;;;;0.70;0.70;;;;;;;6.90;100.00;97133.97;5076177;28;20322;-80
2023/12/11 06:04:24;;;;;;;0.93;0.57;;;;;;;6.90;100.00;97118.22;5075753;28;20211;-80
2023/12/11 06:06:51;;;;;;;0.70;0.70;;;;;;;6.91;100.00;97119.06;5076361;28;20208;-80
2023/12/11 06:09:19;;;;;;;1.00;0.90;;;;;;;6.94;100.00;97114.44;5076026;28;20218;-79
2023/12/11 06:11:45;;;;;;;1.70;0.80;;;;;;;6.90;100.00;97099.84;5076130;28;20314;-78
2023/12/11 06:14:12;;;;;;;0.70;0.70;;;;;;;6.92;100.00;97105.84;5075665;28;20277;-81
2023/12/11 06:16:38;;;;;;;0.80;0.80;;;;;;;6.90;100.00;97097.22;5076773;28;20228;-79
2023/12/11 06:19:05;;;;;;;4.67;2.27;;;;;;;6.89;100.00;97108.66;5075670;28;20260;-79
2023/12/11 06:21:31;;;;;;;2.30;1.60;;;;;;;6.87;100.00;97115.81;5076455;28;20319;-79
2023/12/11 06:23:58;;;;;;;1.63;1.37;;;;;;;6.83;100.00;97111.72;5076057;28;20295;-79
2023/12/11 06:26:30;;;;;;;1.47;1.27;;;;;;;6.84;100.00;97118.66;5074920;28;20208;-79
2023/12/11 06:28:59;;;;;;;1.17;1.00;;;;;;;6.97;100.00;97119.47;5074899;28;20203;-79
2023/12/11 06:31:26;;;;;;;2.80;0.87;;;;;;;7.12;100.00;97118.38;5075032;28;20228;-79
2023/12/11 06:33:53;;;;;;;5.13;1.10;;;;;;;7.12;100.00;97126.28;5075347;28;20234;-79
2023/12/11 06:36:20;;;;;;;0.70;0.70;;;;;;;7.08;100.00;97119.53;5075120;28;20215;-79
2023/12/11 06:38:46;;;;;;;2.23;0.87;;;;;;;7.04;100.00;97114.63;5074973;28;20302;-79
2023/12/11 06:41:13;;;;;;;4.63;0.90;;;;;;;7.07;100.00;97096.84;5074606;28;20413;-79
2023/12/11 06:43:41;;;;;;;2.67;0.93;;;;;;;7.09;100.00;97094.94;5074723;28;20697;-79
2023/12/11 06:46:08;;;;;;;1.40;0.80;;;;;;;7.00;100.00;97093.00;5073851;28;20216;-79
2023/12/11 06:48:34;;;;;;;1.10;0.60;;;;;;;6.98;100.00;97091.41;5074465;28;20302;-79
2023/12/11 06:51:01;;;;;;;1.33;0.80;;;;;;;6.93;100.00;97086.50;5074746;28;20207;-79
2023/12/11 06:53:27;;;;;;;2.57;0.80;;;;;;;7.04;100.00;97094.47;5075710;28;20322;-79
2023/12/11 06:55:54;;;;;;;1.27;0.90;;;;;;;7.13;100.00;97093.78;5073865;28;20309;-79
2023/12/11 06:58:20;;;;;;;1.07;0.90;;;;;;;7.16;100.00;97088.31;5075245;28;20299;-79
2023/12/11 07:00:50;;;;;;;2.43;0.73;;;;;;;7.33;100.00;97090.53;5075148;28;20215;-80
2023/12/11 07:03:17;;;;;;;1.17;0.80;;;;;;;7.41;100.00;97090.84;5074886;28;20258;-79
2023/12/11 07:05:43;;;;;;;2.50;0.70;;;;;;;7.43;100.00;97086.31;5076360;28;20211;-79
2023/12/11 07:08:10;;;;;;;1.37;0.90;;;;;;;7.47;100.00;97090.41;5074918;28;20279;-79
2023/12/11 07:10:37;;;;;;;2.10;1.00;;;;;;;7.55;100.00;97085.41;5074415;28;20686;-80
2023/12/11 07:13:04;;;;;;;0.90;0.80;;;;;;;7.49;100.00;97081.47;5074429;28;20239;-79
2023/12/11 07:15:30;;;;;;;3.03;0.90;;;;;;;7.45;100.00;97089.66;5073809;28;20302;-82
2023/12/11 07:17:58;;;;;;;1.63;0.80;;;;;;;7.39;100.00;97087.47;5075903;28;20208;-79
2023/12/11 07:20:25;;;;;;;2.10;0.73;;;;;;;7.32;100.00;97075.72;5076438;28;20306;-81
2023/12/11 07:22:52;;;;;;;3.27;0.77;;;;;;;7.33;100.00;97073.00;5078390;28;20317;-81
2023/12/11 07:25:18;;;;;;;1.20;0.90;;;;;;;7.30;100.00;97072.38;5078929;28;20563;-79
2023/12/11 07:27:45;;;;;;;0.60;0.60;;;;;;;7.29;100.00;97073.34;5079387;28;20293;-79
2023/12/11 07:30:14;;;;;;;2.00;1.00;;;;;;;7.29;100.00;97079.41;5080874;28;20297;-80
2023/12/11 07:32:40;;;;;;;1.33;1.20;;;;;;;7.27;100.00;97074.41;5080512;28;20245;-79
2023/12/11 07:35:11;;;;;;;2.43;1.23;;;;;;;7.24;100.00;97085.97;5080552;28;20230;-79
2023/12/11 07:37:40;;;;;;;1.10;1.00;;;;;;;7.24;100.00;97075.47;5082007;28;20214;-79
2023/12/11 07:40:08;;;;;;;2.87;1.20;;;;;;;7.22;100.00;97075.56;5081460;28;20235;-80
2023/12/11 07:42:34;;;;;;;1.57;1.40;;;;;;;7.25;100.00;97058.75;5079899;28;20306;-80
2023/12/11 07:45:01;;;;;;;2.07;1.17;;;;;;;7.27;100.00;97056.84;5079961;28;20298;-80
2023/12/11 07:47:27;;;;;;;2.37;1.20;;;;;;;7.29;100.00;97062.84;5080794;28;20376;-80
2023/12/11 07:49:54;;;;;;;1.33;1.23;;;;;;;7.31;100.00;97050.41;5077477;28;20294;-79
2023/12/11 07:52:22;;;;;;;2.30;1.20;;;;;;;7.34;100.00;97044.94;5076833;28;20319;-79
2023/12/11 07:54:48;;;;;;;1.70;1.10;;;;;;;7.38;100.00;97047.22;5076622;28;20646;-80
2023/12/11 07:57:15;;;;;;;2.33;1.10;;;;;;;7.41;100.00;97040.91;5074028;28;20248;-80
2023/12/11 07:59:41;;;;;;;3.73;1.10;;;;;;;7.58;100.00;97043.09;5074053;28;20217;-80
2023/12/11 08:02:08;;;;;;;1.87;1.20;;;;;;;7.66;100.00;97051.28;5074405;28;21036;-80
2023/12/11 08:04:38;;;;;;;1.93;1.13;;;;;;;7.82;100.00;97067.56;5071510;28;20192;-80
2023/12/11 08:07:05;;;;;;;2.03;0.83;;;;;;;7.87;100.00;97075.97;5073634;28;20238;-80
2023/12/11 08:09:37;;;;;;;2.37;1.00;;;;;;;7.93;100.00;97091.28;5073972;28;20727;-80
2023/12/11 08:12:05;;;;;;;2.80;0.77;;;;;;;8.01;100.00;97102.06;5074053;28;20430;-80
2023/12/11 08:14:31;;;;;;;3.13;0.90;;;;;;;8.10;100.00;97101.38;5074624;28;20234;-81
2023/12/11 08:16:58;;;;;;;2.40;0.70;;;;;;;8.26;100.00;97107.22;5064781;28;20299;-81
2023/12/11 08:19:25;;;;;;;0.60;0.60;;;;;;;8.39;100.00;97105.31;5052221;28;20825;-81
2023/12/11 08:21:52;;;;;;;1.33;0.73;;;;;;;8.43;100.00;97101.47;5052810;28;20230;-81
2023/12/11 08:24:19;;;;;;;1.70;0.60;;;;;;;8.45;100.00;97099.56;5052352;28;20599;-81
2023/12/11 08:26:47;;;;;;;0.90;0.50;;;;;;;8.49;100.00;97104.47;5053369;28;20640;-80
2023/12/11 08:29:14;;;;;;;0.73;0.60;;;;;;;8.52;100.00;97100.78;5053655;28;20593;-81
2023/12/11 08:31:40;;;;;;;1.17;0.70;;;;;;;8.56;100.00;97084.59;5053719;28;20317;-81
2023/12/11 08:34:07;;;;;;;1.17;0.60;;;;;;;8.67;100.00;97089.88;5052543;28;20235;-81
2023/12/11 08:36:33;;;;;;;1.57;0.50;;;;;;;8.78;100.00;97078.50;5051619;28;20208;-81
2023/12/11 08:39:00;;;;;;;1.87;0.50;;;;;;;8.83;100.00;97064.03;5053671;28;20212;-80
2023/12/11 08:41:27;;;;;;;1.30;0.80;;;;;;;8.90;100.00;97053.81;5067456;28;20228;-81
2023/12/11 08:43:55;;;;;;;1.63;0.60;;;;;;;8.88;100.00;97056.56;5059412;28;20314;-81
2023/12/11 08:46:22;;;;;;;1.57;0.50;;;;;;;8.91;100.00;97066.03;5059587;28;20210;-81
2023/12/11 08:48:49;;;;;;;0.80;0.60;;;;;;;8.92;100.00;97079.09;5060508;28;20640;-81
2023/12/11 08:51:17;;;;;;;1.43;0.60;;;;;;;8.96;100.00;97082.31;5063740;28;20647;-81
2023/12/11 08:53:44;;;;;;;2.58;0.50;;;;;;;9.01;100.00;97077.53;5073697;28;20472;-79
2023/12/11 08:56:11;;;;;;;1.27;0.70;;;;;;;9.14;100.00;97079.06;5070094;28;20277;-79
2023/12/11 08:58:37;;;;;;;0.77;0.50;;;;;;;9.21;100.00;97068.84;5069862;28;20235;-79
2023/12/11 09:01:06;;;;;;;1.10;0.70;;;;;;;9.26;100.00;97071.97;5069404;28;20236;-79
2023/12/11 09:03:32;;;;;;;1.20;0.60;;;;;;;9.42;100.00;97088.25;5058511;28;20623;-79
2023/12/11 09:05:59;;;;;;;2.57;0.50;;;;;;;9.52;100.00;97091.78;5054174;28;20328;-78
2023/12/11 09:08:25;;;;;;;2.08;0.75;;;;;;;9.51;100.00;97092.75;5053143;28;20495;-81
2023/12/11 09:10:53;;;;;;;1.27;0.70;;;;;;;9.61;100.00;97083.13;5054092;28;20226;-81
2023/12/11 09:13:20;;;;;;;1.27;0.80;;;;;;;9.64;100.00;97094.28;5054824;28;20214;-78
2023/12/11 09:15:49;;;;;;;1.23;0.40;;;;;;;9.68;100.00;97084.31;5054482;28;20546;-81
2023/12/11 09:18:17;;;;;;;1.50;0.80;;;;;;;9.72;100.00;97080.47;5054900;28;20596;-82
2023/12/11 09:20:44;;;;;;;0.93;0.60;;;;;;;9.77;100.00;97083.53;5056943;28;20578;-80
2023/12/11 09:23:10;;;;;;;1.17;0.50;;;;;;;9.79;100.00;97066.63;5057175;28;20215;-81
2023/12/11 09:25:37;;;;;;;0.67;0.50;;;;;;;9.81;100.00;97075.25;5056783;28;20279;-81
2023/12/11 09:28:04;;;;;;;2.80;0.60;;;;;;;9.86;100.00;97080.16;5057126;28;20210;-81
2023/12/11 09:30:31;;;;;;;0.90;0.67;;;;;;;9.89;100.00;97101.00;5057256;28;20222;-81
2023/12/11 09:32:58;;;;;;;1.47;0.63;;;;;;;9.83;100.00;97098.84;5057138;28;20638;-83
2023/12/11 09:35:26;;;;;;;1.07;0.60;;;;;;;9.75;100.00;97115.34;5070047;28;20276;-81
2023/12/11 09:37:52;;;;;;;1.67;0.60;;;;;;;9.77;100.00;97109.91;5077895;28;20241;-81
2023/12/11 09:40:19;;;;;;;0.57;0.53;;;;;;;9.74;100.00;97107.56;5078053;28;20217;-83
2023/12/11 09:42:50;;;;;;;1.53;0.50;;;;;;;9.73;100.00;97113.78;5078629;28;20316;-84
2023/12/11 09:45:21;;;;;;;2.37;0.70;;;;;;;9.76;100.00;97110.88;5076409;28;20220;-82
2023/12/11 09:47:52;;;;;;;0.73;0.63;;;;;;;9.83;100.00;97101.50;5077222;28;20672;-83
2023/12/11 09:50:19;;;;;;;1.90;0.70;;;;;;;9.89;100.00;97103.63;5081484;28;20301;-83
2023/12/11 09:52:47;;;;;;;1.20;0.60;;;;;;;9.93;100.00;97107.72;5081758;28;20231;-83
2023/12/11 09:55:15;;;;;;;1.73;0.60;;;;;;;10.06;100.00;97100.47;5081859;28;20230;-83
2023/12/11 09:57:42;;;;;;;1.13;0.63;;;;;;;10.15;100.00;97089.16;5081931;28;20218;-84
2023/12/11 10:00:11;;;;;;;0.90;0.47;;;;;;;10.29;100.00;97080.91;5082558;28;20660;-81
2023/12/11 10:02:40;;;;;;;1.40;0.60;;;;;;;10.45;100.00;97073.38;5075077;28;20239;-81
2023/12/11 10:05:08;;;;;;;3.60;0.80;;;;;;;10.56;100.00;97067.97;5075635;28;20292;-81
2023/12/11 10:07:36;;;;;;;1.27;0.60;;;;;;;10.63;100.00;97077.91;5076018;28;20201;-81
2023/12/11 10:10:25;;;;;;;0.90;0.80;;;;;;;10.65;100.00;97099.72;5075544;28;20291;-81
2023/12/11 10:12:52;;;;;;;1.40;0.50;;;;;;;10.63;100.00;97096.41;5074982;28;20239;-80
2023/12/11 10:15:23;;;;;;;1.50;0.67;;;;;;;10.60;100.00;97103.75;5074396;28;20313;-79
2023/12/11 10:18:04;;;;;;;3.27;0.70;;;;;;;10.58;100.00;97089.84;5074850;28;20239;-80
2023/12/11 10:20:31;;;;;;;3.53;0.50;;;;;;;10.50;100.00;97089.63;5074692;28;20730;-80
2023/12/11 10:22:58;;;;;;;3.20;1.17;;;;;;;10.52;100.00;97095.66;5074296;28;20234;-80
2023/12/11 10:25:28;;;;;;;1.13;0.50;;;;;;;10.69;100.00;97087.09;5073772;28;20240;-80
2023/12/11 10:28:05;;;;;;;3.10;0.73;;;;;;;10.78;100.00;97078.38;5074594;28;20203;-80
2023/12/11 10:30:32;;;;;;;2.90;0.90;;;;;;;10.94;100.00;97082.19;5073918;28;20292;-80
2023/12/11 10:33:01;;;;;;;1.53;0.73;;;;;;;11.03;100.00;97084.06;5074475;28;20710;-81
2023/12/11 10:35:28;;;;;;;1.70;0.63;;;;;;;11.10;100.00;97079.06;5073588;28;20234;-81
2023/12/11 10:38:00;;;;;;;2.73;0.57;;;;;;;11.16;100.00;97074.06;5073899;28;20375;-80
2023/12/11 10:40:36;;;;;;;1.87;0.70;;;;;;;11.23;100.00;97061.13;5074220;28;20214;-79
2023/12/11 10:43:03;;;;;;;1.67;0.70;;;;;;;11.25;100.00;97061.84;5074431;28;20337;-80
2023/12/11 10:45:30;;;;;;;1.93;0.70;;;;;;;11.28;100.00;97058.91;5072253;28;20207;-80
2023/12/11 10:47:57;;;;;;;3.13;0.83;;;;;;;11.33;100.00;97056.72;5074385;28;20686;-80
2023/12/11 10:50:24;;;;;;;1.47;0.70;;;;;;;11.41;100.00;97057.69;5074569;28;20211;-80
2023/12/11 10:52:51;;;;;;;1.17;0.77;;;;;;;11.49;100.00;97063.13;5074856;28;20324;-80
2023/12/11 10:55:18;;;;;;;2.10;0.90;;;;;;;11.56;97.67;97061.59;5073639;28;20231;-80
2023/12/11 10:57:47;;;;;;;1.67;0.90;;;;;;;11.66;97.65;97066.94;5074752;28;20309;-77
2023/12/11 11:00:14;;;;;;;3.63;1.03;;;;;;;11.71;98.56;97070.84;5074070;28;20584;-78
2023/12/11 11:02:43;;;;;;;2.43;0.93;;;;;;;11.75;96.44;97050.25;5073029;28;20241;-79
2023/12/11 11:05:10;;;;;;;2.67;1.07;;;;;;;11.75;95.57;97058.19;5072678;28;20212;-79
2023/12/11 11:07:46;;;;;;;2.53;0.90;;;;;;;11.79;94.15;97051.66;5073325;28;20564;-78
2023/12/11 11:10:19;;;;;;;3.37;0.87;;;;;;;11.91;92.02;97042.53;5072748;28;20320;-78
2023/12/11 11:12:54;;;;;;;2.07;0.90;;;;;;;11.86;93.38;97061.50;5073018;28;20593;-79
2023/12/11 11:15:22;;;;;;;4.17;1.27;;;;;;;11.84;93.12;97044.94;5072441;28;20541;-79
2023/12/11 11:17:59;;;;;;;2.43;0.70;;;;;;;11.81;91.39;97045.19;5072933;28;20209;-80
2023/12/11 11:20:26;;;;;;;1.47;0.73;;;;;;;11.84;90.65;97039.66;5074332;28;20262;-81
2023/12/11 11:22:52;;;;;;;1.93;0.97;;;;;;;11.78;89.86;97039.34;5074407;28;20238;-81
2023/12/11 11:25:32;;;;;;;3.03;0.90;;;;;;;11.70;92.04;97047.16;5075147;28;20722;-81
2023/12/11 11:28:01;;;;;;;1.63;0.70;;;;;;;11.72;92.32;97045.22;5077409;28;20238;-81
2023/12/11 11:30:50;;;;;;;3.50;0.83;;;;;;;11.74;91.70;97045.91;5076827;28;20210;-81
2023/12/11 11:33:17;;;;;;;6.30;1.30;;;;;;;11.79;90.00;97041.06;5077740;28;20214;-82